Time;durP1;ratioP1;P1;durP2;ratioP2;P2;SDS_P1;SDS_P2;PMS_P1;PMS_P2;Temp;Humidity;BMP_temperature;BMP_pressure;BME280_temperature;BME280_humidity;BME280_pressure;Samples;Min_cycle;Max_cycle;Signal;HPM_P1;HPM_P2
2022/03/22 00:00:35;;;;;;;14.95;11.75;;;7.10;29.40;;;;;;5018109;28;20273;-74
2022/03/22 00:03:05;;;;;;;16.15;11.80;;;7.00;29.70;;;;;;5016634;28;20243;-74
2022/03/22 00:05:32;;;;;;;16.33;11.57;;;7.00;30.00;;;;;;5016128;28;20334;-74
2022/03/22 00:08:00;;;;;;;19.33;12.48;;;6.90;30.30;;;;;;5016542;28;20225;-74
2022/03/22 00:10:28;;;;;;;22.20;12.25;;;6.80;30.60;;;;;;5015571;28;20535;-76
2022/03/22 00:12:55;;;;;;;15.98;11.85;;;6.70;31.00;;;;;;5016198;28;20213;-75
2022/03/22 00:15:22;;;;;;;20.73;12.82;;;6.60;31.30;;;;;;5016654;28;20215;-74
2022/03/22 00:17:49;;;;;;;18.58;11.77;;;6.50;31.50;;;;;;5016186;28;20732;-74
2022/03/22 00:20:17;;;;;;;23.95;12.27;;;6.50;31.60;;;;;;5017346;28;20672;-73
2022/03/22 00:22:44;;;;;;;17.63;11.48;;;6.40;31.90;;;;;;5017114;28;20246;-75
2022/03/22 00:25:12;;;;;;;16.48;11.68;;;6.30;32.30;;;;;;5017153;28;20215;-75
2022/03/22 00:27:52;;;;;;;20.65;12.93;;;6.20;32.60;;;;;;5016579;28;20255;-75
2022/03/22 00:30:20;;;;;;;16.15;11.80;;;6.20;32.60;;;;;;5015909;28;20642;-73
2022/03/22 00:32:48;;;;;;;22.08;13.45;;;6.10;32.70;;;;;;5015970;28;20215;-74
2022/03/22 00:35:17;;;;;;;16.67;11.30;;;6.00;33.50;;;;;;5016149;28;20219;-74
2022/03/22 00:37:49;;;;;;;17.10;12.43;;;6.00;33.50;;;;;;5016000;28;20312;-74
2022/03/22 00:40:17;;;;;;;17.63;12.40;;;6.00;33.50;;;;;;5016328;28;20238;-74
2022/03/22 00:42:46;;;;;;;22.05;12.40;;;6.00;33.40;;;;;;5018798;28;20373;-74
2022/03/22 00:45:15;;;;;;;20.30;12.65;;;5.90;33.70;;;;;;5020420;28;20584;-74
2022/03/22 00:47:43;;;;;;;18.05;12.75;;;5.90;33.80;;;;;;5023636;28;20214;-75
2022/03/22 00:50:10;;;;;;;19.30;12.32;;;5.80;33.70;;;;;;5023815;28;20211;-74
2022/03/22 00:52:37;;;;;;;16.65;11.80;;;5.80;33.70;;;;;;5018056;28;20234;-73
2022/03/22 00:55:06;;;;;;;19.02;11.98;;;5.70;34.00;;;;;;5017014;28;20213;-74
2022/03/22 00:57:34;;;;;;;23.80;13.20;;;5.70;34.20;;;;;;5017358;28;20250;-74
2022/03/22 01:00:04;;;;;;;17.83;13.18;;;5.60;34.50;;;;;;5052280;23;20767;-74
2022/03/22 01:02:34;;;;;;;19.48;12.75;;;5.60;34.80;;;;;;5035627;28;20212;-73
2022/03/22 01:05:01;;;;;;;18.77;12.18;;;5.50;35.30;;;;;;5036849;28;20207;-73
2022/03/22 01:07:29;;;;;;;15.40;12.02;;;5.50;35.10;;;;;;5041737;28;20451;-74
2022/03/22 01:09:56;;;;;;;17.92;12.20;;;5.50;34.60;;;;;;5045605;28;20258;-73
2022/03/22 01:12:24;;;;;;;15.18;11.35;;;5.40;35.60;;;;;;5036474;28;20698;-74
2022/03/22 01:14:52;;;;;;;17.40;12.45;;;5.40;35.10;;;;;;5050339;28;20212;-73
2022/03/22 01:17:19;;;;;;;18.23;12.27;;;5.30;35.80;;;;;;5053171;28;20263;-73
2022/03/22 01:19:47;;;;;;;22.33;13.02;;;5.30;36.30;;;;;;5053704;28;20300;-73
2022/03/22 01:22:15;;;;;;;20.90;13.18;;;5.20;36.30;;;;;;5056332;28;20202;-74
2022/03/22 01:24:42;;;;;;;16.73;12.60;;;5.20;35.70;;;;;;5056020;28;20233;-73
2022/03/22 01:27:09;;;;;;;17.83;12.45;;;5.20;35.40;;;;;;5055929;28;20210;-73
2022/03/22 01:29:38;;;;;;;18.23;12.10;;;5.20;35.90;;;;;;5056362;28;20234;-73
2022/03/22 01:32:06;;;;;;;18.45;11.73;;;5.10;36.00;;;;;;5055370;28;20208;-72
2022/03/22 01:34:32;;;;;;;16.45;11.45;;;5.10;35.30;;;;;;5056026;28;20315;-73
2022/03/22 01:36:59;;;;;;;18.25;12.00;;;5.10;36.10;;;;;;5037188;28;20696;-73
2022/03/22 01:39:26;;;;;;;23.58;12.88;;;5.00;35.40;;;;;;5033427;28;20241;-73
2022/03/22 01:41:53;;;;;;;18.60;12.50;;;5.10;35.00;;;;;;5033245;28;20304;-73
2022/03/22 01:44:20;;;;;;;17.52;12.45;;;5.20;35.00;;;;;;5033530;28;20223;-73
2022/03/22 01:46:48;;;;;;;17.92;11.45;;;5.10;35.10;;;;;;5033180;28;20650;-74
2022/03/22 01:49:15;;;;;;;18.35;11.82;;;5.10;35.10;;;;;;5033535;28;20313;-73
2022/03/22 01:51:43;;;;;;;19.00;12.15;;;5.10;35.00;;;;;;5038241;28;20207;-72
2022/03/22 01:54:13;;;;;;;18.90;12.68;;;5.10;34.90;;;;;;5033902;28;20209;-73
2022/03/22 01:56:40;;;;;;;17.10;11.60;;;5.00;35.00;;;;;;5033518;28;20208;-73
2022/03/22 01:59:07;;;;;;;17.67;11.52;;;5.00;35.10;;;;;;5032895;28;20315;-73
2022/03/22 02:07:05;;;;;;;17.92;12.52;;;4.90;35.00;;;;;;5032819;28;20342;-73
2022/03/22 02:09:32;;;;;;;20.15;12.05;;;4.80;35.30;;;;;;5032101;28;20625;-73
2022/03/22 02:11:59;;;;;;;17.15;11.55;;;4.80;35.70;;;;;;5032163;28;20212;-73
2022/03/22 02:14:26;;;;;;;20.05;12.52;;;4.70;35.90;;;;;;5032337;28;20622;-73
2022/03/22 02:16:54;;;;;;;18.77;11.98;;;4.60;35.80;;;;;;5032133;28;20294;-73
2022/03/22 02:19:22;;;;;;;21.45;12.02;;;4.60;35.80;;;;;;5031964;28;20316;-74
2022/03/22 02:21:55;;;;;;;18.13;11.30;;;4.50;36.20;;;;;;5032214;28;20211;-73
2022/03/22 02:24:24;;;;;;;18.15;12.07;;;4.50;35.70;;;;;;5031877;28;20239;-73
2022/03/22 02:26:51;;;;;;;20.08;11.43;;;4.50;35.70;;;;;;5031583;28;20691;-73
2022/03/22 02:29:18;;;;;;;22.77;12.75;;;4.40;35.60;;;;;;5031733;28;20665;-73
2022/03/22 02:31:45;;;;;;;17.77;11.57;;;4.40;35.60;;;;;;5032577;28;20222;-74
2022/03/22 02:34:11;;;;;;;14.85;11.02;;;4.30;36.30;;;;;;5032186;28;20554;-73
2022/03/22 02:36:38;;;;;;;18.67;11.40;;;4.30;36.30;;;;;;5032857;28;20535;-74
2022/03/22 02:39:09;;;;;;;17.58;11.43;;;4.30;35.50;;;;;;5033423;28;20337;-73
2022/03/22 02:41:46;;;;;;;16.58;11.95;;;4.20;35.50;;;;;;5036502;28;20217;-73
2022/03/22 02:44:13;;;;;;;20.63;12.27;;;4.20;35.50;;;;;;5036615;28;20232;-73
2022/03/22 02:46:40;;;;;;;15.80;12.23;;;4.20;35.50;;;;;;5036273;28;20207;-73
2022/03/22 02:49:07;;;;;;;17.65;12.20;;;4.00;35.30;;;;;;5032506;28;20239;-73
2022/03/22 02:51:34;;;;;;;17.67;12.68;;;4.00;35.30;;;;;;5032500;28;20203;-74
2022/03/22 02:54:01;;;;;;;16.52;11.55;;;4.00;35.30;;;;;;5032925;28;20674;-73
2022/03/22 02:56:27;;;;;;;16.48;11.80;;;3.90;35.80;;;;;;5036300;28;20214;-72
2022/03/22 02:58:56;;;;;;;17.30;12.15;;;3.80;36.30;;;;;;5037048;28;20251;-73
2022/03/22 03:01:22;;;;;;;18.70;12.35;;;3.80;36.40;;;;;;5045671;28;20238;-73
2022/03/22 03:03:49;;;;;;;16.98;10.98;;;3.80;37.00;;;;;;5037589;28;20215;-74
2022/03/22 03:06:16;;;;;;;19.08;12.05;;;3.80;36.10;;;;;;5036199;28;20313;-73
2022/03/22 03:08:43;;;;;;;18.38;12.13;;;3.90;36.00;;;;;;5033164;28;20234;-73
2022/03/22 03:11:12;;;;;;;15.93;11.05;;;4.00;35.90;;;;;;5031955;28;20291;-73
2022/03/22 03:16:24;;;;;;;18.52;11.65;;;3.90;36.50;;;;;;5032019;28;20271;-73
2022/03/22 03:18:52;;;;;;;19.65;12.27;;;3.90;36.60;;;;;;5031928;28;20235;-74
2022/03/22 03:21:19;;;;;;;19.70;12.13;;;3.90;36.90;;;;;;5031292;28;20210;-73
2022/03/22 03:23:45;;;;;;;17.75;11.75;;;3.80;37.10;;;;;;5031809;28;20298;-73
2022/03/22 03:26:12;;;;;;;16.85;11.43;;;3.80;37.20;;;;;;5031132;28;20358;-73
2022/03/22 03:28:39;;;;;;;17.73;11.95;;;3.70;37.30;;;;;;5031206;28;20735;-74
2022/03/22 03:31:06;;;;;;;22.55;12.02;;;3.60;37.60;;;;;;5031306;28;20208;-73
2022/03/22 03:33:34;;;;;;;19.13;12.02;;;3.60;38.20;;;;;;5031754;28;20784;-73
2022/03/22 03:36:02;;;;;;;18.90;12.60;;;3.60;38.60;;;;;;5036597;28;20216;-73
2022/03/22 03:38:29;;;;;;;18.13;11.95;;;3.50;39.00;;;;;;5042180;28;20231;-74
2022/03/22 03:43:41;;;;;;;20.58;13.60;;;3.40;39.60;;;;;;5044492;28;20231;-72
2022/03/22 03:48:53;;;;;;;20.48;12.88;;;3.30;41.80;;;;;;5038684;28;20223;-72
2022/03/22 03:51:20;;;;;;;21.35;13.20;;;3.30;42.70;;;;;;5039332;28;20690;-73
2022/03/22 03:53:47;;;;;;;20.40;13.07;;;3.30;43.70;;;;;;5037407;28;20652;-72
2022/03/22 03:56:14;;;;;;;20.30;12.70;;;3.20;44.30;;;;;;5039600;28;20208;-72
2022/03/22 03:58:41;;;;;;;20.00;13.13;;;3.10;44.20;;;;;;5036695;28;20319;-72
2022/03/22 04:01:08;;;;;;;19.38;13.95;;;3.10;44.20;;;;;;5034786;28;20722;-72
2022/03/22 04:03:35;;;;;;;22.65;14.63;;;3.10;44.70;;;;;;5035462;28;20219;-71
2022/03/22 04:06:03;;;;;;;24.63;14.30;;;3.10;44.90;;;;;;5034782;28;20212;-73
2022/03/22 04:08:31;;;;;;;24.50;14.18;;;3.10;45.40;;;;;;5034534;28;20258;-72
2022/03/22 04:10:58;;;;;;;18.83;13.15;;;3.00;46.00;;;;;;5033988;28;20203;-72
2022/03/22 04:13:24;;;;;;;19.27;13.50;;;3.00;46.10;;;;;;5034415;28;20302;-72
2022/03/22 04:15:52;;;;;;;21.38;13.98;;;2.80;46.70;;;;;;5034172;28;20207;-71
2022/03/22 04:18:19;;;;;;;20.50;13.32;;;2.80;47.20;;;;;;5033516;28;20734;-72
2022/03/22 04:20:47;;;;;;;19.58;14.10;;;2.70;48.10;;;;;;5033355;28;20207;-73
2022/03/22 04:23:16;;;;;;;18.88;12.65;;;2.60;48.50;;;;;;5034125;28;20203;-72
2022/03/22 04:25:43;;;;;;;23.35;14.60;;;2.50;49.50;;;;;;5033750;28;20682;-72
2022/03/22 04:33:43;;;;;;;22.90;14.43;;;2.40;52.40;;;;;;4995296;28;20733;-72
2022/03/22 04:36:11;;;;;;;20.38;13.27;;;2.30;53.00;;;;;;5034205;28;20258;-71
2022/03/22 04:38:39;;;;;;;25.42;14.80;;;2.20;52.90;;;;;;5029338;28;20308;-72
2022/03/22 04:41:08;;;;;;;18.90;13.00;;;2.20;53.20;;;;;;5024329;28;20204;-72
2022/03/22 04:43:35;;;;;;;20.42;13.95;;;2.10;53.70;;;;;;5013563;28;20293;-72
2022/03/22 04:46:02;;;;;;;21.15;13.60;;;2.10;53.70;;;;;;5013415;28;20236;-72
2022/03/22 04:48:29;;;;;;;19.40;13.80;;;2.00;54.30;;;;;;5020592;28;20219;-72
2022/03/22 04:56:46;;;;;;;19.48;13.65;;;2.00;56.40;;;;;;4987910;28;20251;-72
2022/03/22 04:59:14;;;;;;;23.42;14.57;;;1.90;57.20;;;;;;5016275;28;20235;-72
2022/03/22 05:01:42;;;;;;;22.45;14.45;;;1.90;57.20;;;;;;5022565;28;20261;-71
2022/03/22 05:04:10;;;;;;;26.27;15.15;;;1.90;57.40;;;;;;5032872;28;20211;-72
2022/03/22 05:06:38;;;;;;;19.58;13.27;;;1.90;57.60;;;;;;5026285;28;20206;-72
2022/03/22 05:09:07;;;;;;;18.92;12.55;;;1.90;57.70;;;;;;5012996;28;20874;-71
2022/03/22 05:11:35;;;;;;;24.25;13.88;;;1.90;57.50;;;;;;5018569;28;20211;-71
2022/03/22 05:14:02;;;;;;;22.75;13.10;;;1.90;57.60;;;;;;5030661;28;20534;-72
2022/03/22 05:16:29;;;;;;;22.38;14.18;;;1.90;57.60;;;;;;5013521;28;20550;-71
2022/03/22 05:18:57;;;;;;;22.65;14.05;;;2.00;57.40;;;;;;5015714;28;20227;-72
2022/03/22 05:21:25;;;;;;;20.73;13.52;;;2.00;57.40;;;;;;5013713;28;20299;-70
2022/03/22 05:23:52;;;;;;;21.48;14.50;;;2.00;57.00;;;;;;5032626;28;20213;-71
2022/03/22 05:26:21;;;;;;;21.20;12.95;;;2.00;57.30;;;;;;5023364;28;20291;-71
2022/03/22 05:28:48;;;;;;;22.33;13.68;;;2.00;57.20;;;;;;5014536;28;20295;-72
2022/03/22 05:31:17;;;;;;;17.60;12.50;;;2.00;57.40;;;;;;5028841;28;20306;-72
2022/03/22 05:33:44;;;;;;;21.67;13.63;;;1.90;57.60;;;;;;5017733;28;20517;-72
2022/03/22 05:36:11;;;;;;;23.95;14.15;;;1.90;57.60;;;;;;5014148;28;20210;-72
2022/03/22 05:38:38;;;;;;;18.38;13.10;;;1.90;57.70;;;;;;5013809;28;20323;-71
2022/03/22 05:41:06;;;;;;;25.48;14.30;;;1.90;57.30;;;;;;5013040;28;20294;-72
2022/03/22 05:43:36;;;;;;;19.30;12.85;;;1.90;57.40;;;;;;5012828;28;20270;-72
2022/03/22 05:46:04;;;;;;;25.77;13.98;;;2.00;57.30;;;;;;5012653;28;20215;-72
2022/03/22 05:48:31;;;;;;;22.45;13.98;;;2.00;57.40;;;;;;5017481;28;20235;-71
2022/03/22 05:50:58;;;;;;;18.75;13.02;;;2.00;57.50;;;;;;5014791;28;20204;-71
2022/03/22 05:53:25;;;;;;;22.55;13.98;;;2.00;56.80;;;;;;5012615;28;20214;-71
2022/03/22 05:55:52;;;;;;;21.65;14.43;;;2.00;56.60;;;;;;5012694;28;20214;-72
2022/03/22 05:58:18;;;;;;;22.42;13.25;;;2.00;56.90;;;;;;5011851;28;20746;-72
2022/03/22 06:00:47;;;;;;;22.25;14.32;;;2.00;56.80;;;;;;5012349;28;20232;-72
2022/03/22 06:03:14;;;;;;;20.45;13.80;;;2.00;56.80;;;;;;5012671;28;20218;-71
2022/03/22 06:05:42;;;;;;;20.80;14.40;;;2.00;57.00;;;;;;5012921;28;20204;-72
2022/03/22 06:08:09;;;;;;;23.13;15.00;;;2.00;57.00;;;;;;5013185;28;20219;-72
2022/03/22 06:10:37;;;;;;;25.52;15.45;;;1.90;57.20;;;;;;5012495;28;20292;-72
2022/03/22 06:13:04;;;;;;;29.35;15.65;;;2.10;57.50;;;;;;5012716;28;20217;-72
2022/03/22 06:15:33;;;;;;;18.40;13.40;;;2.10;57.00;;;;;;5012874;28;20308;-73
2022/03/22 06:18:02;;;;;;;22.02;14.52;;;2.20;56.50;;;;;;5012513;28;20219;-72
2022/03/22 06:20:31;;;;;;;19.33;13.70;;;2.30;55.30;;;;;;5011981;28;20608;-72
2022/03/22 06:22:59;;;;;;;24.48;14.70;;;2.50;54.70;;;;;;5012445;28;20259;-71
2022/03/22 06:25:26;;;;;;;22.88;15.00;;;2.60;54.20;;;;;;5012427;28;20218;-72
2022/03/22 06:27:54;;;;;;;21.80;13.63;;;2.70;53.30;;;;;;5012005;28;20324;-72
2022/03/22 06:30:22;;;;;;;23.80;13.68;;;2.80;53.40;;;;;;5011914;28;20260;-72
2022/03/22 06:32:51;;;;;;;25.73;14.20;;;2.90;53.40;;;;;;5012212;28;20200;-72
2022/03/22 06:35:20;;;;;;;25.90;13.95;;;3.00;52.40;;;;;;5012343;28;20295;-72
2022/03/22 06:37:49;;;;;;;21.42;14.43;;;3.10;50.70;;;;;;5012091;28;20210;-71
2022/03/22 06:40:18;;;;;;;19.05;12.40;;;3.20;50.50;;;;;;5013391;28;20246;-71
2022/03/22 06:42:46;;;;;;;24.98;13.57;;;3.30;50.10;;;;;;5012069;28;20243;-71
2022/03/22 06:45:13;;;;;;;19.35;13.00;;;3.50;49.30;;;;;;5013678;28;20679;-71
2022/03/22 06:47:41;;;;;;;20.40;14.05;;;3.50;49.00;;;;;;5013008;28;20246;-71
2022/03/22 06:50:10;;;;;;;20.92;14.35;;;3.60;48.00;;;;;;5011810;28;20632;-72
2022/03/22 06:52:39;;;;;;;26.85;15.02;;;3.80;47.90;;;;;;5012352;28;20207;-72
2022/03/22 06:55:08;;;;;;;21.33;14.48;;;3.90;47.20;;;;;;5011636;28;20299;-71
2022/03/22 06:57:36;;;;;;;17.75;12.73;;;3.90;46.20;;;;;;5011668;28;20312;-72
2022/03/22 07:00:06;;;;;;;22.67;14.02;;;3.90;46.00;;;;;;5035094;23;20549;-76
2022/03/22 07:02:35;;;;;;;20.80;14.00;;;4.00;45.40;;;;;;5015557;28;20211;-77
2022/03/22 07:05:02;;;;;;;21.42;14.52;;;4.10;45.20;;;;;;5015917;28;20223;-77
2022/03/22 07:07:29;;;;;;;20.77;14.65;;;4.20;45.20;;;;;;5014889;28;20216;-76
2022/03/22 07:09:58;;;;;;;20.20;14.52;;;4.30;44.80;;;;;;5017793;28;20230;-76
2022/03/22 07:12:25;;;;;;;16.73;13.23;;;4.40;43.90;;;;;;5020137;28;20253;-76
2022/03/22 07:14:52;;;;;;;21.70;14.68;;;4.50;43.00;;;;;;5020656;28;20210;-77
2022/03/22 07:17:19;;;;;;;23.02;13.40;;;4.50;42.80;;;;;;5018677;28;20225;-76
2022/03/22 07:19:47;;;;;;;20.05;13.88;;;4.70;42.40;;;;;;5023018;28;20315;-77
2022/03/22 07:22:13;;;;;;;31.65;14.32;;;4.80;40.90;;;;;;5020402;28;20243;-77
2022/03/22 07:24:40;;;;;;;18.35;13.85;;;5.00;41.00;;;;;;5020061;28;20216;-76
2022/03/22 07:27:08;;;;;;;25.75;14.85;;;5.10;41.00;;;;;;5019313;28;20285;-77
2022/03/22 07:29:35;;;;;;;22.80;14.45;;;5.30;39.50;;;;;;5019830;28;20822;-77
2022/03/22 07:32:03;;;;;;;22.50;14.23;;;5.40;39.10;;;;;;5019845;28;20212;-76
2022/03/22 07:34:29;;;;;;;23.60;13.73;;;5.40;38.40;;;;;;5021664;28;20222;-78
2022/03/22 07:36:56;;;;;;;21.00;14.82;;;5.60;38.30;;;;;;5027440;28;20211;-77
2022/03/22 07:39:27;;;;;;;20.33;14.18;;;5.70;37.50;;;;;;5032410;28;20297;-77
2022/03/22 07:41:54;;;;;;;19.05;14.80;;;5.80;37.00;;;;;;5024910;28;20262;-76
2022/03/22 07:44:22;;;;;;;20.35;13.63;;;6.00;37.00;;;;;;5037090;28;20214;-77
2022/03/22 07:46:49;;;;;;;21.45;13.52;;;6.00;37.00;;;;;;5035306;28;20208;-76
2022/03/22 07:54:44;;;;;;;20.63;14.23;;;6.30;36.70;;;;;;5024480;28;20195;-76
2022/03/22 07:57:11;;;;;;;21.30;13.43;;;6.50;36.20;;;;;;5024938;28;20218;-76
2022/03/22 07:59:40;;;;;;;20.58;14.45;;;6.60;35.20;;;;;;5029684;28;20224;-77
2022/03/22 08:02:07;;;;;;;21.33;14.35;;;6.80;34.50;;;;;;5023943;28;20297;-77
2022/03/22 08:04:34;;;;;;;21.80;14.18;;;6.90;34.20;;;;;;5020205;28;20301;-76
2022/03/22 08:07:00;;;;;;;20.42;13.98;;;6.90;34.60;;;;;;5023976;28;20289;-77
2022/03/22 08:09:27;;;;;;;19.80;13.75;;;7.10;34.30;;;;;;5023046;28;20235;-76
2022/03/22 08:11:54;;;;;;;20.30;14.48;;;7.30;33.80;;;;;;5023629;28;20243;-76
2022/03/22 08:14:21;;;;;;;23.08;14.48;;;7.50;33.30;;;;;;5029782;28;20284;-78
2022/03/22 08:16:50;;;;;;;20.08;13.65;;;7.70;32.80;;;;;;5021872;28;20214;-77
2022/03/22 08:19:18;;;;;;;25.13;14.82;;;7.40;32.70;;;;;;5017619;28;20228;-77
2022/03/22 08:21:46;;;;;;;20.10;14.32;;;7.50;32.70;;;;;;5016928;28;20578;-77
2022/03/22 08:24:13;;;;;;;19.40;14.10;;;7.70;32.30;;;;;;5017637;28;20204;-77
2022/03/22 08:26:40;;;;;;;21.73;14.02;;;7.50;32.70;;;;;;5016690;28;20216;-76
2022/03/22 08:29:08;;;;;;;18.88;14.05;;;7.70;32.30;;;;;;5017602;28;20234;-77
2022/03/22 08:31:35;;;;;;;20.42;13.32;;;7.70;32.70;;;;;;5028286;28;20655;-77
2022/03/22 08:34:04;;;;;;;19.85;14.07;;;7.90;31.90;;;;;;5035031;28;20212;-76
2022/03/22 08:36:33;;;;;;;20.15;13.98;;;7.90;31.80;;;;;;5031535;28;20244;-77
2022/03/22 08:39:00;;;;;;;22.90;15.07;;;8.10;31.60;;;;;;5033968;28;20594;-78
2022/03/22 08:41:27;;;;;;;20.02;13.60;;;8.30;31.10;;;;;;5036972;28;20253;-76
2022/03/22 08:43:54;;;;;;;19.02;14.55;;;8.60;30.60;;;;;;5037167;28;20244;-78
2022/03/22 08:46:24;;;;;;;21.30;14.95;;;8.80;30.20;;;;;;5036923;28;20306;-77
2022/03/22 08:48:52;;;;;;;21.05;15.50;;;8.60;29.90;;;;;;5035039;28;20234;-77
2022/03/22 08:51:21;;;;;;;19.60;14.57;;;8.70;30.00;;;;;;5035596;28;20609;-77
2022/03/22 08:53:47;;;;;;;20.63;14.93;;;8.80;29.60;;;;;;5032127;28;20215;-76
2022/03/22 08:56:15;;;;;;;19.33;14.57;;;8.90;30.30;;;;;;5034391;28;20231;-76
2022/03/22 08:58:42;;;;;;;18.23;14.52;;;8.80;29.60;;;;;;5036405;28;20239;-77
2022/03/22 09:01:09;;;;;;;22.90;15.57;;;8.80;29.60;;;;;;5034450;28;20228;-77
2022/03/22 09:03:38;;;;;;;22.08;15.00;;;9.00;29.80;;;;;;5034870;28;20260;-76
2022/03/22 09:06:11;;;;;;;18.85;15.10;;;9.30;30.00;;;;;;5034986;28;20208;-77
2022/03/22 09:08:41;;;;;;;20.17;15.02;;;9.60;29.50;;;;;;5034417;28;20232;-77
2022/03/22 09:11:11;;;;;;;20.55;13.98;;;9.70;29.00;;;;;;5033984;28;20192;-76
2022/03/22 09:13:40;;;;;;;23.63;15.18;;;10.00;27.50;;;;;;5035691;28;20287;-76
2022/03/22 09:16:09;;;;;;;15.13;12.20;;;10.00;27.20;;;;;;5034508;28;20227;-76
2022/03/22 09:18:36;;;;;;;21.50;14.50;;;10.20;27.40;;;;;;5036548;28;20216;-77
2022/03/22 09:21:03;;;;;;;20.23;14.85;;;10.40;27.00;;;;;;5035661;28;20254;-76
2022/03/22 09:23:30;;;;;;;20.20;14.57;;;10.40;26.80;;;;;;5030746;28;20208;-77
2022/03/22 09:25:59;;;;;;;24.70;15.80;;;10.40;27.00;;;;;;5030042;28;20234;-77
2022/03/22 09:28:26;;;;;;;27.65;15.00;;;10.50;26.90;;;;;;5034637;28;20214;-78
2022/03/22 09:30:53;;;;;;;19.70;14.35;;;10.70;26.30;;;;;;5019825;28;20247;-77
2022/03/22 09:33:22;;;;;;;21.17;14.13;;;10.90;25.90;;;;;;5016596;28;20210;-77
2022/03/22 09:35:49;;;;;;;20.42;14.80;;;11.00;25.40;;;;;;5018166;28;20243;-77
2022/03/22 09:38:16;;;;;;;17.15;13.45;;;11.20;25.30;;;;;;5023243;28;20231;-77
2022/03/22 09:40:43;;;;;;;19.38;14.20;;;11.40;25.00;;;;;;5021575;28;20251;-77
2022/03/22 09:43:12;;;;;;;19.08;14.13;;;11.60;24.40;;;;;;5018865;28;20295;-78
2022/03/22 09:45:42;;;;;;;16.60;13.35;;;11.70;24.30;;;;;;5018528;28;20691;-77
2022/03/22 09:48:09;;;;;;;20.55;13.80;;;11.70;23.80;;;;;;5017904;28;20546;-76
2022/03/22 09:53:20;;;;;;;17.40;13.05;;;12.00;23.10;;;;;;5017020;28;20278;-78
2022/03/22 09:55:47;;;;;;;17.00;12.75;;;12.00;23.70;;;;;;5015407;28;20265;-77
2022/03/22 09:58:15;;;;;;;20.65;12.40;;;12.00;23.10;;;;;;5015307;28;20214;-77
2022/03/22 10:00:42;;;;;;;18.40;13.00;;;12.10;23.20;;;;;;5015614;28;20227;-77
2022/03/22 10:03:17;;;;;;;15.80;12.20;;;12.10;22.60;;;;;;5016027;28;20745;-77
2022/03/22 10:05:45;;;;;;;16.42;12.25;;;12.00;23.10;;;;;;5016372;28;20221;-77
2022/03/22 10:08:12;;;;;;;16.60;12.20;;;12.00;23.20;;;;;;5023205;28;20270;-78
2022/03/22 10:10:53;;;;;;;18.75;12.40;;;12.20;23.30;;;;;;5017446;28;20230;-78
2022/03/22 10:13:21;;;;;;;18.75;12.57;;;12.20;23.30;;;;;;5019772;28;20278;-78
2022/03/22 10:15:49;;;;;;;18.17;13.35;;;12.30;23.30;;;;;;5018419;28;20544;-77
2022/03/22 10:18:22;;;;;;;24.02;13.05;;;12.20;23.30;;;;;;5018765;28;20294;-79
2022/03/22 10:20:58;;;;;;;21.98;13.40;;;12.30;23.30;;;;;;5016826;28;20216;-77
2022/03/22 10:23:25;;;;;;;17.05;12.45;;;12.50;23.50;;;;;;5018093;28;20303;-77
2022/03/22 10:26:03;;;;;;;15.20;13.18;;;12.60;23.60;;;;;;5020891;28;20223;-77
2022/03/22 10:28:31;;;;;;;19.53;13.60;;;12.60;22.80;;;;;;5027211;28;20270;-77
2022/03/22 10:30:59;;;;;;;21.95;13.20;;;12.20;23.30;;;;;;5021610;28;20445;-77
2022/03/22 10:33:26;;;;;;;23.75;13.32;;;12.40;23.40;;;;;;5020997;28;20208;-76
2022/03/22 10:35:53;;;;;;;17.48;12.70;;;12.30;23.30;;;;;;5022910;28;20266;-78
2022/03/22 10:38:20;;;;;;;18.95;13.13;;;12.40;23.20;;;;;;5018088;28;20216;-77
2022/03/22 10:40:49;;;;;;;19.88;14.32;;;12.20;23.30;;;;;;5017738;28;20702;-76
2022/03/22 10:43:18;;;;;;;17.17;13.50;;;12.40;23.40;;;;;;5021434;28;20235;-78
2022/03/22 10:45:48;;;;;;;16.80;12.23;;;12.80;22.50;;;;;;5027508;28;20211;-77
2022/03/22 10:48:20;;;;;;;17.60;12.83;;;13.00;21.10;;;;;;5026106;28;20549;-77
2022/03/22 10:50:48;;;;;;;22.88;14.10;;;13.30;21.00;;;;;;5024364;28;20460;-77
2022/03/22 10:53:16;;;;;;;15.57;12.63;;;13.40;20.80;;;;;;5027212;28;20208;-78
2022/03/22 10:55:45;;;;;;;17.13;12.30;;;13.60;20.40;;;;;;5034736;28;20526;-77
2022/03/22 10:58:14;;;;;;;17.67;12.67;;;13.70;20.30;;;;;;5037740;28;20457;-76
2022/03/22 11:00:44;;;;;;;18.60;12.73;;;13.80;20.30;;;;;;5030873;28;20468;-77
2022/03/22 11:03:14;;;;;;;18.77;13.02;;;13.30;20.90;;;;;;5042296;28;20442;-77
2022/03/22 11:05:42;;;;;;;16.80;13.47;;;13.20;21.70;;;;;;5039346;28;20207;-76
2022/03/22 11:08:09;;;;;;;18.70;13.85;;;13.00;21.20;;;;;;5028694;28;20484;-77
2022/03/22 11:10:36;;;;;;;20.13;14.40;;;13.10;21.10;;;;;;5027601;28;20243;-78
2022/03/22 11:13:03;;;;;;;23.35;13.98;;;13.40;21.20;;;;;;5038134;28;20215;-77
2022/03/22 11:15:34;;;;;;;15.88;12.27;;;13.70;20.90;;;;;;5037106;28;20243;-77
2022/03/22 11:18:03;;;;;;;23.13;13.60;;;13.90;19.80;;;;;;5036928;28;20192;-78
2022/03/22 11:20:32;;;;;;;18.95;13.02;;;14.10;19.30;;;;;;5036853;28;20473;-76
2022/03/22 11:23:00;;;;;;;19.00;13.40;;;14.40;19.70;;;;;;5029988;28;20204;-77
2022/03/22 11:25:31;;;;;;;20.20;14.13;;;14.80;19.00;;;;;;5024704;28;20440;-75
2022/03/22 11:28:00;;;;;;;18.87;13.20;;;15.00;18.40;;;;;;5021362;28;20877;-77
2022/03/22 11:30:29;;;;;;;20.03;14.20;;;15.10;17.90;;;;;;5021919;28;20979;-75
2022/03/22 11:35:56;;;;;;;16.57;12.87;;;15.00;17.00;;;;;;5020657;28;20467;-76
2022/03/22 11:38:43;;;;;;;15.93;13.00;;;15.20;17.20;;;;;;5021309;28;20433;-76
2022/03/22 11:44:09;;;;;;;17.77;13.50;;;15.40;17.30;;;;;;5022749;28;20414;-75
2022/03/22 11:46:36;;;;;;;18.40;13.43;;;15.20;17.20;;;;;;5022956;28;20417;-75
2022/03/22 11:49:18;;;;;;;16.87;14.07;;;14.60;16.80;;;;;;5024122;28;20532;-79
2022/03/22 11:51:51;;;;;;;17.33;14.53;;;14.80;16.90;;;;;;5024686;28;20541;-76
2022/03/22 11:54:19;;;;;;;17.10;13.83;;;15.20;17.20;;;;;;5025543;28;20429;-76
2022/03/22 11:56:48;;;;;;;14.77;12.57;;;15.30;17.30;;;;;;5029076;28;20450;-77
2022/03/22 11:59:16;;;;;;;19.40;13.40;;;15.40;16.90;;;;;;5023643;28;20490;-76
2022/03/22 12:01:56;;;;;;;16.43;14.00;;;15.50;15.90;;;;;;5022254;28;20461;-75
2022/03/22 12:04:37;;;;;;;16.77;13.27;;;15.70;15.50;;;;;;5024795;28;20444;-76
2022/03/22 12:07:07;;;;;;;16.30;13.70;;;15.70;16.00;;;;;;5020273;28;20811;-75
2022/03/22 12:09:35;;;;;;;20.20;13.53;;;15.80;15.20;;;;;;5016357;28;20455;-76
2022/03/22 12:12:02;;;;;;;20.07;14.00;;;16.00;15.20;;;;;;5016906;28;20432;-75
2022/03/22 12:14:34;;;;;;;19.30;13.97;;;16.20;15.50;;;;;;5017473;28;20454;-76
2022/03/22 12:17:01;;;;;;;17.83;13.73;;;16.30;14.60;;;;;;5016846;28;20465;-75
2022/03/22 12:19:30;;;;;;;18.97;14.17;;;16.20;14.60;;;;;;5016089;28;20456;-75
2022/03/22 12:22:00;;;;;;;18.53;14.23;;;16.10;14.20;;;;;;5016488;28;20459;-77
2022/03/22 12:24:33;;;;;;;20.93;14.63;;;16.10;14.10;;;;;;5016699;28;20448;-76
2022/03/22 12:27:02;;;;;;;16.80;12.73;;;16.10;14.10;;;;;;5016765;28;20596;-76
2022/03/22 12:29:28;;;;;;;15.40;12.37;;;16.10;14.30;;;;;;5015761;28;20475;-75
2022/03/22 12:32:06;;;;;;;18.00;13.30;;;16.30;13.80;;;;;;5018166;28;20426;-76
2022/03/22 12:34:37;;;;;;;19.50;13.03;;;16.40;13.70;;;;;;5016592;28;20505;-75
2022/03/22 12:37:06;;;;;;;16.73;11.97;;;16.50;13.30;;;;;;5016440;28;20458;-75
2022/03/22 12:39:35;;;;;;;19.00;13.30;;;16.50;14.00;;;;;;5015867;28;20824;-76
2022/03/22 12:42:02;;;;;;;14.87;12.10;;;16.60;13.20;;;;;;5016346;28;20449;-76
2022/03/22 12:44:29;;;;;;;16.60;12.37;;;16.60;13.40;;;;;;5015930;28;20436;-76
2022/03/22 12:46:57;;;;;;;13.97;10.83;;;16.50;13.00;;;;;;5021728;28;20485;-76
2022/03/22 12:49:25;;;;;;;20.87;12.07;;;16.30;13.30;;;;;;5025745;28;20478;-75
2022/03/22 12:51:52;;;;;;;16.40;12.60;;;16.00;13.40;;;;;;5023359;28;20459;-76
2022/03/22 12:54:18;;;;;;;15.23;12.23;;;15.90;13.50;;;;;;5023780;28;20446;-77
2022/03/22 12:56:48;;;;;;;20.23;12.33;;;16.40;13.10;;;;;;5020762;28;20521;-76
2022/03/22 12:59:20;;;;;;;20.43;12.10;;;16.70;13.10;;;;;;5016388;28;20877;-77
2022/03/22 13:01:52;;;;;;;15.20;11.13;;;16.90;12.40;;;;;;5016420;28;20857;-76
2022/03/22 13:04:23;;;;;;;14.87;12.77;;;17.10;12.40;;;;;;5015574;28;20815;-74
2022/03/22 13:07:00;;;;;;;18.13;12.73;;;17.20;12.10;;;;;;5013908;28;20517;-77
2022/03/22 13:12:16;;;;;;;19.80;12.77;;;17.30;12.00;;;;;;5015078;28;20530;-76
2022/03/22 13:17:29;;;;;;;14.30;11.43;;;17.40;11.60;;;;;;5015079;28;20408;-76
2022/03/22 13:19:57;;;;;;;19.17;12.93;;;17.30;12.00;;;;;;5014655;28;20848;-75
2022/03/22 13:22:26;;;;;;;14.17;11.73;;;17.40;12.20;;;;;;5014826;28;20490;-75